Time;durP1;ratioP1;P1;durP2;ratioP2;P2;SDS_P1;SDS_P2;PMS_P1;PMS_P2;Temp;Humidity;BMP_temperature;BMP_pressure;BME280_temperature;BME280_humidity;BME280_pressure;Samples;Min_cycle;Max_cycle;Signal;HPM_P1;HPM_P2
2022/08/30 00:02:35;;;;;;;4.22;1.83;;;17.00;99.90;;;;;;5035173;28;20124;-68
2022/08/30 00:05:01;;;;;;;3.53;1.80;;;16.80;99.90;;;;;;5035124;28;20121;-68
2022/08/30 00:07:27;;;;;;;3.60;1.77;;;16.80;99.90;;;;;;5034991;28;20554;-68
2022/08/30 00:09:52;;;;;;;4.60;3.03;;;16.80;99.90;;;;;;5034649;28;20045;-68
2022/08/30 00:12:19;;;;;;;3.47;2.40;;;16.80;99.90;;;;;;5034719;28;20499;-68
2022/08/30 00:14:46;;;;;;;3.95;2.80;;;16.90;99.90;;;;;;5034860;28;20052;-68
2022/08/30 00:17:11;;;;;;;3.65;2.42;;;16.80;99.90;;;;;;5034874;28;20042;-68
2022/08/30 00:19:37;;;;;;;6.53;2.90;;;16.90;99.90;;;;;;5034450;28;20514;-68
2022/08/30 00:22:04;;;;;;;4.75;2.65;;;16.70;99.90;;;;;;5034579;28;20045;-68
2022/08/30 00:24:29;;;;;;;6.43;3.20;;;16.70;99.90;;;;;;5034611;28;20527;-69
2022/08/30 00:26:55;;;;;;;6.97;2.92;;;16.70;99.90;;;;;;5034818;28;20121;-68
2022/08/30 00:29:21;;;;;;;6.18;3.30;;;16.70;99.90;;;;;;5034447;28;20037;-68
2022/08/30 00:31:46;;;;;;;6.00;2.63;;;16.60;99.90;;;;;;5034490;28;20033;-69
2022/08/30 00:34:12;;;;;;;7.07;2.40;;;16.60;99.90;;;;;;5034552;28;20041;-68
2022/08/30 00:36:38;;;;;;;4.28;2.25;;;16.70;99.90;;;;;;5034385;28;20037;-68
2022/08/30 00:39:05;;;;;;;4.93;2.40;;;16.80;99.90;;;;;;5034378;28;20041;-68
2022/08/30 00:41:30;;;;;;;4.10;2.63;;;16.60;99.90;;;;;;5034042;28;20044;-68
2022/08/30 00:43:56;;;;;;;6.75;2.88;;;16.50;99.90;;;;;;5033315;28;20034;-68
2022/08/30 00:46:22;;;;;;;6.55;2.70;;;16.60;99.90;;;;;;5034451;28;20033;-68
2022/08/30 00:48:49;;;;;;;5.47;2.80;;;16.80;99.90;;;;;;5034331;28;20029;-68
2022/08/30 00:51:17;;;;;;;4.47;2.65;;;16.50;99.90;;;;;;5033895;28;20038;-68
2022/08/30 00:53:49;;;;;;;5.07;2.40;;;16.40;99.90;;;;;;5034040;28;20088;-68
2022/08/30 00:56:16;;;;;;;8.17;3.67;;;16.60;99.90;;;;;;5034299;28;20033;-68
2022/08/30 00:58:45;;;;;;;5.32;2.83;;;16.50;99.90;;;;;;5034243;28;20037;-68
2022/08/30 01:01:12;;;;;;;6.05;3.30;;;16.40;99.90;;;;;;5033734;28;20038;-68
2022/08/30 01:03:38;;;;;;;5.30;3.10;;;16.40;99.90;;;;;;5034072;28;20095;-68
2022/08/30 01:06:06;;;;;;;4.85;3.22;;;16.50;99.90;;;;;;5033973;28;20045;-68
2022/08/30 01:08:32;;;;;;;4.47;2.72;;;16.60;99.90;;;;;;5033848;28;20530;-68
2022/08/30 01:10:59;;;;;;;4.43;2.75;;;16.50;99.90;;;;;;5033410;28;20041;-68
2022/08/30 01:13:25;;;;;;;4.90;2.95;;;16.50;99.90;;;;;;5032812;28;20051;-69
2022/08/30 01:15:52;;;;;;;6.60;3.17;;;16.40;99.90;;;;;;5033859;28;20041;-68
2022/08/30 01:18:18;;;;;;;4.07;2.67;;;16.30;99.90;;;;;;5033671;28;20125;-68
2022/08/30 01:21:09;;;;;;;6.63;3.08;;;16.20;99.90;;;;;;5033190;28;20518;-68
2022/08/30 01:23:42;;;;;;;4.43;2.75;;;16.20;99.90;;;;;;5032381;28;20044;-68
2022/08/30 01:26:09;;;;;;;5.28;3.30;;;16.30;99.90;;;;;;5033626;28;20566;-68
2022/08/30 01:28:35;;;;;;;5.43;3.10;;;16.30;99.90;;;;;;5033496;28;20095;-68
2022/08/30 01:33:29;;;;;;;5.55;3.25;;;16.30;99.90;;;;;;5074297;22;20045;-67
2022/08/30 01:35:57;;;;;;;8.27;3.30;;;16.20;99.90;;;;;;5053556;28;20463;-67
2022/08/30 01:38:27;;;;;;;6.60;3.05;;;16.10;99.90;;;;;;5052784;28;20040;-67
2022/08/30 01:41:06;;;;;;;6.93;3.00;;;16.10;99.90;;;;;;5053016;28;20040;-68
2022/08/30 01:43:31;;;;;;;5.35;2.97;;;16.10;99.90;;;;;;5033289;28;20038;-67
2022/08/30 01:45:57;;;;;;;5.30;3.20;;;16.20;99.90;;;;;;5033112;28;20100;-67
2022/08/30 01:48:23;;;;;;;7.18;3.00;;;16.20;99.90;;;;;;5033346;28;20056;-67
2022/08/30 01:50:48;;;;;;;5.07;2.95;;;16.20;99.90;;;;;;5032889;28;20041;-67
2022/08/30 01:53:14;;;;;;;3.92;2.92;;;16.10;99.90;;;;;;5033053;28;20095;-67
2022/08/30 01:55:41;;;;;;;4.60;2.60;;;16.10;99.90;;;;;;5032995;28;20045;-67
2022/08/30 01:58:06;;;;;;;6.05;2.95;;;16.20;99.90;;;;;;5032754;28;20462;-67
2022/08/30 02:00:32;;;;;;;7.75;3.05;;;16.10;99.90;;;;;;5032483;28;20033;-68
2022/08/30 02:02:57;;;;;;;5.22;3.05;;;16.20;99.90;;;;;;5032983;28;20443;-67
2022/08/30 02:05:23;;;;;;;7.40;3.47;;;16.00;99.90;;;;;;5031793;28;20498;-68
2022/08/30 02:07:49;;;;;;;7.75;3.22;;;16.10;99.90;;;;;;5032690;28;20048;-67
2022/08/30 02:10:14;;;;;;;5.97;3.35;;;16.00;99.90;;;;;;5032423;28;20048;-67
2022/08/30 02:12:40;;;;;;;5.70;2.67;;;16.20;99.90;;;;;;5032596;28;20052;-67
2022/08/30 02:15:07;;;;;;;6.13;2.75;;;16.20;99.90;;;;;;5032546;28;20242;-67
2022/08/30 02:17:33;;;;;;;6.55;2.88;;;16.10;99.90;;;;;;5032467;28;20499;-67
2022/08/30 02:19:58;;;;;;;5.43;2.72;;;16.20;99.90;;;;;;5032389;28;20040;-68
2022/08/30 02:22:24;;;;;;;5.10;2.55;;;16.30;99.90;;;;;;5032015;28;20488;-67
2022/08/30 02:24:49;;;;;;;3.22;2.60;;;16.20;99.90;;;;;;5032515;28;20499;-67
2022/08/30 02:27:15;;;;;;;3.83;2.40;;;16.10;99.90;;;;;;5032363;28;20499;-67
2022/08/30 02:29:41;;;;;;;5.45;2.60;;;16.30;99.90;;;;;;5031933;28;20438;-67
2022/08/30 02:32:07;;;;;;;4.28;2.97;;;16.10;99.90;;;;;;5032079;28;20084;-68
2022/08/30 02:34:32;;;;;;;4.57;2.22;;;16.10;99.90;;;;;;5032400;28;20033;-68
2022/08/30 02:36:58;;;;;;;5.13;2.72;;;16.20;99.90;;;;;;5032104;28;20491;-68
2022/08/30 02:39:23;;;;;;;8.48;2.80;;;16.10;99.90;;;;;;5031907;28;20033;-68
2022/08/30 02:41:49;;;;;;;7.50;3.00;;;16.10;99.90;;;;;;5032100;28;20037;-67
2022/08/30 02:44:15;;;;;;;4.90;2.90;;;16.10;99.90;;;;;;5030813;28;20042;-67
2022/08/30 02:46:40;;;;;;;6.93;2.95;;;16.20;99.90;;;;;;5032314;28;20049;-67
2022/08/30 02:49:07;;;;;;;6.47;2.75;;;16.00;99.90;;;;;;5032163;28;20049;-67
2022/08/30 02:51:33;;;;;;;4.85;2.38;;;16.10;99.90;;;;;;5031826;28;20045;-68
2022/08/30 02:53:59;;;;;;;5.97;2.95;;;16.10;99.90;;;;;;5030933;28;20072;-67
2022/08/30 02:56:33;;;;;;;5.18;2.72;;;16.00;99.90;;;;;;5031879;28;20073;-68
2022/08/30 02:58:59;;;;;;;3.92;2.72;;;16.20;99.90;;;;;;5032114;28;20037;-67
2022/08/30 03:01:25;;;;;;;7.22;3.80;;;16.10;99.90;;;;;;5031682;28;20129;-68
2022/08/30 03:03:50;;;;;;;4.43;2.90;;;16.10;99.90;;;;;;5031943;28;20040;-67
2022/08/30 03:06:17;;;;;;;5.32;3.20;;;15.90;99.90;;;;;;5031904;28;20037;-67
2022/08/30 03:08:43;;;;;;;4.13;3.15;;;15.80;99.90;;;;;;5031823;28;20064;-67
2022/08/30 03:11:09;;;;;;;6.90;3.30;;;15.80;99.90;;;;;;5031380;28;20488;-68
2022/08/30 03:13:35;;;;;;;5.40;3.15;;;15.80;99.90;;;;;;5031957;28;20120;-67
2022/08/30 03:16:01;;;;;;;7.80;3.53;;;15.90;99.90;;;;;;5031860;28;20043;-67
2022/08/30 03:18:27;;;;;;;4.75;3.22;;;15.70;99.90;;;;;;5031675;28;20049;-67
2022/08/30 03:20:53;;;;;;;5.45;3.17;;;15.80;99.90;;;;;;5031492;28;20033;-67
2022/08/30 03:23:18;;;;;;;5.68;3.40;;;15.60;99.90;;;;;;5031544;28;20427;-67
2022/08/30 03:25:44;;;;;;;4.75;3.35;;;15.50;99.90;;;;;;5030388;28;20041;-67
2022/08/30 03:28:10;;;;;;;6.10;3.85;;;15.60;99.90;;;;;;5031754;28;20037;-67
2022/08/30 03:30:35;;;;;;;7.28;4.05;;;15.60;99.90;;;;;;5031407;28;20041;-67
2022/08/30 03:33:01;;;;;;;5.10;3.33;;;15.60;99.90;;;;;;5031403;28;20124;-67
2022/08/30 03:35:27;;;;;;;7.07;4.43;;;15.40;99.90;;;;;;5033608;28;20041;-67
2022/08/30 03:37:53;;;;;;;4.88;3.67;;;15.60;99.90;;;;;;5035497;28;20083;-67
2022/08/30 03:40:20;;;;;;;5.45;4.30;;;15.50;99.90;;;;;;5035186;28;20491;-67
2022/08/30 03:42:47;;;;;;;5.60;4.20;;;15.40;99.90;;;;;;5035416;28;20048;-67
2022/08/30 03:45:15;;;;;;;6.95;4.07;;;15.40;99.90;;;;;;5035593;28;20040;-67
2022/08/30 03:47:40;;;;;;;7.57;4.07;;;15.30;99.90;;;;;;5035633;28;20041;-67
2022/08/30 03:50:07;;;;;;;8.13;4.80;;;15.20;99.90;;;;;;5035192;28;20518;-67
2022/08/30 03:52:33;;;;;;;8.32;4.43;;;15.20;99.90;;;;;;5035062;28;20034;-68
2022/08/30 03:55:00;;;;;;;5.88;4.22;;;15.10;99.90;;;;;;5033871;28;20042;-68
2022/08/30 03:57:26;;;;;;;5.68;4.32;;;15.30;99.90;;;;;;5017405;28;20091;-68
2022/08/30 03:59:51;;;;;;;6.95;4.22;;;15.20;99.90;;;;;;5034868;28;20506;-68
2022/08/30 04:02:17;;;;;;;9.77;5.00;;;15.10;99.90;;;;;;5035086;28;20042;-69
2022/08/30 04:04:42;;;;;;;7.03;4.05;;;15.20;99.90;;;;;;5035585;28;20545;-68
2022/08/30 04:07:08;;;;;;;9.25;4.70;;;15.10;99.90;;;;;;5035047;28;20041;-68
2022/08/30 04:09:33;;;;;;;8.07;4.20;;;15.20;99.90;;;;;;5034582;28;20041;-68
2022/08/30 04:11:59;;;;;;;6.68;4.82;;;15.20;99.90;;;;;;5034861;28;20037;-68
2022/08/30 04:14:25;;;;;;;7.05;4.75;;;15.00;99.90;;;;;;5035027;28;20076;-68
2022/08/30 04:16:50;;;;;;;8.02;4.45;;;15.00;99.90;;;;;;5034842;28;20091;-68
2022/08/30 04:19:16;;;;;;;7.20;4.88;;;15.20;99.90;;;;;;5034520;28;20052;-68
2022/08/30 04:21:43;;;;;;;5.07;4.38;;;15.00;99.90;;;;;;5033351;28;20043;-68
2022/08/30 04:24:10;;;;;;;6.10;4.82;;;14.90;99.90;;;;;;5034691;28;20057;-68
2022/08/30 04:26:36;;;;;;;7.18;4.75;;;15.00;99.90;;;;;;5034942;28;20038;-68
2022/08/30 04:29:01;;;;;;;8.23;3.92;;;14.90;99.90;;;;;;5034747;28;20112;-69
2022/08/30 04:31:27;;;;;;;8.93;3.97;;;15.00;99.90;;;;;;5034191;28;20550;-68
2022/08/30 04:33:53;;;;;;;8.48;4.90;;;15.00;99.90;;;;;;5034717;28;20480;-68
2022/08/30 04:36:19;;;;;;;6.97;4.53;;;15.00;99.90;;;;;;5034462;28;20129;-68
2022/08/30 04:38:45;;;;;;;6.93;4.20;;;14.90;99.90;;;;;;5034445;28;20069;-68
2022/08/30 04:41:15;;;;;;;8.35;4.20;;;14.90;99.90;;;;;;5034177;28;20072;-68
2022/08/30 04:43:41;;;;;;;8.70;4.28;;;14.80;99.90;;;;;;5034474;28;20042;-68
2022/08/30 04:46:08;;;;;;;7.05;4.07;;;14.90;99.90;;;;;;5033946;28;20465;-68
2022/08/30 04:48:35;;;;;;;9.50;4.32;;;15.00;99.90;;;;;;5034356;28;20052;-69
2022/08/30 04:51:05;;;;;;;4.95;3.78;;;14.70;99.90;;;;;;5033969;28;20037;-67
2022/08/30 04:53:32;;;;;;;8.40;3.78;;;14.80;99.90;;;;;;5034115;28;20041;-68
2022/08/30 04:55:57;;;;;;;5.78;3.53;;;14.80;99.90;;;;;;5034349;28;20073;-68
2022/08/30 04:58:23;;;;;;;5.38;3.25;;;14.90;99.90;;;;;;5034111;28;20073;-68
2022/08/30 05:00:49;;;;;;;5.13;3.47;;;14.90;99.90;;;;;;5033917;28;20082;-68
2022/08/30 05:03:16;;;;;;;8.60;3.67;;;14.80;99.90;;;;;;5033952;28;20399;-68
2022/08/30 05:05:46;;;;;;;5.00;3.40;;;14.90;99.90;;;;;;5016443;28;20557;-68
2022/08/30 05:08:15;;;;;;;5.05;3.58;;;14.80;99.90;;;;;;5033449;28;20038;-68
2022/08/30 05:10:43;;;;;;;7.55;3.70;;;14.90;99.90;;;;;;5030648;28;20495;-68
2022/08/30 05:13:10;;;;;;;5.55;3.28;;;14.90;99.90;;;;;;5033418;28;20049;-68
2022/08/30 05:15:36;;;;;;;4.72;3.42;;;14.80;99.90;;;;;;5033454;28;20083;-68
2022/08/30 05:18:09;;;;;;;7.18;3.80;;;14.90;99.90;;;;;;5033729;28;20053;-68
2022/08/30 05:20:35;;;;;;;7.53;3.47;;;15.00;99.90;;;;;;5032125;28;20124;-68
2022/08/30 05:23:02;;;;;;;4.82;3.53;;;14.90;99.90;;;;;;5033797;28;20084;-69
2022/08/30 05:25:31;;;;;;;7.43;4.40;;;14.90;99.90;;;;;;5033766;28;20465;-68
2022/08/30 05:27:57;;;;;;;10.63;3.83;;;15.00;99.90;;;;;;5032396;28;20045;-68
2022/08/30 05:30:24;;;;;;;7.97;3.90;;;15.00;99.90;;;;;;5031938;28;20128;-68
2022/08/30 05:32:50;;;;;;;6.15;3.70;;;15.00;99.90;;;;;;5033266;28;20041;-69
2022/08/30 05:35:17;;;;;;;8.05;3.90;;;15.20;99.90;;;;;;5015570;28;20128;-68
2022/08/30 05:37:43;;;;;;;5.28;3.67;;;15.60;99.90;;;;;;5033245;28;20086;-68
2022/08/30 05:40:09;;;;;;;6.90;3.40;;;15.60;99.90;;;;;;5033011;28;20060;-68
2022/08/30 05:42:35;;;;;;;5.70;3.17;;;15.90;99.90;;;;;;5033373;28;20042;-66
2022/08/30 05:45:03;;;;;;;9.93;3.33;;;16.10;99.90;;;;;;5033266;28;20059;-66
2022/08/30 05:47:28;;;;;;;5.82;3.35;;;16.20;99.90;;;;;;5033090;28;20089;-67
2022/08/30 05:49:54;;;;;;;6.03;3.38;;;16.30;99.90;;;;;;5033021;28;20076;-67
2022/08/30 05:52:19;;;;;;;6.28;3.47;;;16.60;99.90;;;;;;5032910;28;20037;-67
2022/08/30 05:54:51;;;;;;;9.05;3.17;;;16.70;99.90;;;;;;5032981;28;20068;-67
2022/08/30 05:57:17;;;;;;;6.75;3.67;;;16.90;99.90;;;;;;5032156;28;20049;-67
2022/08/30 05:59:43;;;;;;;8.65;3.90;;;16.90;99.90;;;;;;5032667;28;20116;-67
2022/08/30 06:02:09;;;;;;;6.60;3.47;;;17.10;99.90;;;;;;5032729;28;20479;-67
2022/08/30 06:04:37;;;;;;;4.75;3.65;;;17.20;99.90;;;;;;5031526;28;20045;-67
2022/08/30 06:07:04;;;;;;;9.18;3.58;;;17.40;99.90;;;;;;5032900;28;20033;-67
2022/08/30 06:09:30;;;;;;;5.45;3.55;;;17.60;99.90;;;;;;5032458;28;20033;-68
2022/08/30 06:11:56;;;;;;;6.93;3.38;;;17.80;99.90;;;;;;5032639;28;20052;-68
2022/08/30 06:14:22;;;;;;;10.63;4.57;;;17.80;99.90;;;;;;5032430;28;20559;-68
2022/08/30 06:16:48;;;;;;;7.55;3.53;;;18.00;99.90;;;;;;5032243;28;20049;-67
2022/08/30 06:19:14;;;;;;;6.07;3.22;;;18.10;99.90;;;;;;5032368;28;20415;-67
2022/08/30 06:21:40;;;;;;;3.78;3.20;;;18.10;99.90;;;;;;5032435;28;20033;-68
2022/08/30 06:24:07;;;;;;;6.90;2.95;;;18.40;99.90;;;;;;5032575;28;20041;-68
2022/08/30 06:26:37;;;;;;;5.75;3.83;;;18.50;99.90;;;;;;5032485;28;20038;-68
2022/08/30 06:29:03;;;;;;;6.43;3.08;;;18.60;99.90;;;;;;5032337;28;20073;-68
2022/08/30 06:31:29;;;;;;;8.70;2.67;;;18.70;99.90;;;;;;5032073;28;20037;-68
2022/08/30 06:33:54;;;;;;;5.20;3.00;;;18.90;99.90;;;;;;5032283;28;20537;-68
2022/08/30 06:36:22;;;;;;;5.32;2.75;;;19.00;99.90;;;;;;5032439;28;20069;-68
2022/08/30 06:38:53;;;;;;;3.50;1.88;;;19.20;99.90;;;;;;5032262;28;20125;-68
2022/08/30 06:41:23;;;;;;;5.03;2.00;;;19.40;99.90;;;;;;5031857;28;20399;-68
2022/08/30 06:43:49;;;;;;;3.83;2.13;;;19.40;99.90;;;;;;5032216;28;20073;-68
2022/08/30 06:46:41;;;;;;;7.30;2.17;;;19.70;99.90;;;;;;5032279;28;20075;-68
2022/08/30 06:49:07;;;;;;;3.25;2.30;;;19.80;99.40;;;;;;5029803;28;20468;-67
2022/08/30 06:51:36;;;;;;;4.32;2.35;;;19.90;98.80;;;;;;5031752;28;20048;-68
2022/08/30 06:54:02;;;;;;;4.38;1.90;;;19.90;98.40;;;;;;5031881;28;20053;-68
2022/08/30 06:56:28;;;;;;;6.57;2.95;;;20.00;98.30;;;;;;5032134;28;20049;-68
2022/08/30 06:58:54;;;;;;;4.18;2.70;;;20.10;97.90;;;;;;5032062;28;20044;-68
2022/08/30 07:01:25;;;;;;;7.85;2.80;;;20.10;97.90;;;;;;5031544;28;20064;-68
2022/08/30 07:03:51;;;;;;;5.45;2.20;;;20.00;97.60;;;;;;5031821;28;20040;-68
2022/08/30 07:06:18;;;;;;;2.72;1.98;;;20.10;97.30;;;;;;5031813;28;20042;-68
2022/08/30 07:08:43;;;;;;;3.05;1.67;;;20.20;96.80;;;;;;5031572;28;20112;-68
2022/08/30 07:11:09;;;;;;;2.65;1.30;;;20.30;96.40;;;;;;5031527;28;20184;-68
2022/08/30 07:13:35;;;;;;;4.40;1.52;;;20.40;95.90;;;;;;5031921;28;20060;-68
2022/08/30 07:16:09;;;;;;;3.05;1.38;;;20.50;94.70;;;;;;5031836;28;20048;-68
2022/08/30 07:18:50;;;;;;;4.30;1.50;;;20.60;94.10;;;;;;5031710;28;20076;-68
2022/08/30 07:21:18;;;;;;;2.15;1.08;;;20.70;93.80;;;;;;5031340;28;20041;-68
2022/08/30 07:23:47;;;;;;;3.35;1.15;;;20.90;93.10;;;;;;5031835;28;20165;-68
2022/08/30 07:26:15;;;;;;;4.00;1.27;;;21.20;92.70;;;;;;5031807;28;20045;-68
2022/08/30 07:28:44;;;;;;;2.35;1.10;;;21.20;91.80;;;;;;5031616;28;20487;-68
2022/08/30 07:31:10;;;;;;;5.13;1.67;;;21.30;90.80;;;;;;5030998;28;20049;-68
2022/08/30 07:33:36;;;;;;;6.65;1.45;;;21.20;90.10;;;;;;5031256;28;20060;-68
2022/08/30 07:36:03;;;;;;;2.28;1.20;;;21.40;88.60;;;;;;5031594;28;20041;-69
2022/08/30 07:38:29;;;;;;;2.75;1.08;;;21.40;88.20;;;;;;5031595;28;20073;-69
2022/08/30 07:40:59;;;;;;;2.45;1.08;;;21.50;86.20;;;;;;5013433;28;20119;-68
2022/08/30 07:43:28;;;;;;;3.08;1.17;;;21.60;84.30;;;;;;5031480;28;20037;-68
2022/08/30 07:45:54;;;;;;;2.22;1.95;;;21.40;82.60;;;;;;5031283;28;20069;-68
2022/08/30 07:48:20;;;;;;;2.15;0.82;;;21.50;82.40;;;;;;5031313;28;20056;-69
2022/08/30 07:50:46;;;;;;;1.98;1.00;;;21.50;80.40;;;;;;5031109;28;20033;-68
2022/08/30 07:53:12;;;;;;;3.00;0.93;;;21.50;79.30;;;;;;5031464;28;20065;-68
2022/08/30 07:55:38;;;;;;;2.80;0.80;;;21.50;79.30;;;;;;5031454;28;20044;-69
2022/08/30 07:58:04;;;;;;;2.95;1.30;;;21.50;78.30;;;;;;5031285;28;20045;-69
2022/08/30 08:00:30;;;;;;;3.15;1.25;;;21.50;77.50;;;;;;5030967;28;20041;-69
2022/08/30 08:02:55;;;;;;;1.90;1.08;;;21.60;76.30;;;;;;5031237;28;20041;-69
2022/08/30 08:05:21;;;;;;;3.65;0.95;;;21.60;75.40;;;;;;5031460;28;20037;-69
2022/08/30 08:07:46;;;;;;;3.22;1.17;;;21.50;73.40;;;;;;5031457;28;20046;-69
2022/08/30 08:10:13;;;;;;;3.80;1.05;;;21.60;73.00;;;;;;5030981;28;20041;-68
2022/08/30 08:12:39;;;;;;;3.92;0.82;;;21.60;72.90;;;;;;5029853;28;20500;-68
2022/08/30 08:15:06;;;;;;;4.18;1.02;;;21.60;72.50;;;;;;5031167;28;20033;-68
2022/08/30 08:17:32;;;;;;;1.63;0.82;;;21.80;73.40;;;;;;5031134;28;20565;-68
2022/08/30 08:19:57;;;;;;;1.88;0.80;;;21.80;72.40;;;;;;5030822;28;20038;-68
2022/08/30 08:22:23;;;;;;;3.88;1.10;;;21.80;71.90;;;;;;5034236;28;20037;-69
2022/08/30 08:24:49;;;;;;;5.28;1.45;;;21.90;71.20;;;;;;5033647;28;20041;-68
2022/08/30 08:27:15;;;;;;;2.72;0.95;;;21.80;70.80;;;;;;5034816;28;20120;-68
2022/08/30 08:29:41;;;;;;;5.53;1.00;;;21.90;71.40;;;;;;5034307;28;20037;-69
2022/08/30 08:32:06;;;;;;;4.10;0.80;;;21.80;70.60;;;;;;5034433;28;20129;-68
2022/08/30 08:34:33;;;;;;;3.78;0.90;;;21.80;71.00;;;;;;5034795;28;20042;-68
2022/08/30 08:36:59;;;;;;;1.77;0.80;;;21.70;70.30;;;;;;5034575;28;20052;-68
2022/08/30 08:39:24;;;;;;;2.08;0.82;;;21.70;70.80;;;;;;5034082;28;20264;-68
2022/08/30 08:42:06;;;;;;;2.53;1.08;;;21.70;70.70;;;;;;5034370;28;20087;-69
2022/08/30 08:44:59;;;;;;;1.45;0.77;;;21.40;70.20;;;;;;5033273;28;20045;-69
2022/08/30 08:47:46;;;;;;;3.23;0.83;;;21.30;71.40;;;;;;5034557;28;20048;-68
2022/08/30 08:50:16;;;;;;;3.65;1.17;;;21.00;71.20;;;;;;5033920;28;20753;-68
2022/08/30 08:55:49;;;;;;;2.05;1.02;;;21.00;72.60;;;;;;5032798;28;20495;-68
2022/08/30 08:58:52;;;;;;;1.98;1.27;;;21.30;72.00;;;;;;5033877;28;20042;-68
2022/08/30 09:01:21;;;;;;;2.65;1.10;;;21.30;71.00;;;;;;5012046;28;20049;-68
2022/08/30 09:03:48;;;;;;;2.28;0.75;;;21.40;71.00;;;;;;5034195;28;20044;-68
2022/08/30 09:06:43;;;;;;;4.22;0.85;;;21.60;71.80;;;;;;5034093;28;20045;-68
2022/08/30 09:09:09;;;;;;;3.30;0.90;;;21.60;70.70;;;;;;5033863;28;20048;-68
2022/08/30 09:11:36;;;;;;;1.73;0.95;;;21.80;71.40;;;;;;5033427;28;20052;-68
2022/08/30 09:14:07;;;;;;;2.38;0.85;;;21.90;70.30;;;;;;5033822;28;20049;-68
2022/08/30 09:16:50;;;;;;;1.42;0.65;;;22.10;70.30;;;;;;5033508;28;20033;-67
2022/08/30 09:19:56;;;;;;;2.08;0.95;;;22.20;69.50;;;;;;5031812;28;20095;-68
2022/08/30 09:22:27;;;;;;;1.60;0.90;;;21.90;68.70;;;;;;5029996;28;20037;-68
2022/08/30 09:25:06;;;;;;;2.10;0.75;;;21.60;69.60;;;;;;5033279;28;20408;-68
2022/08/30 09:27:38;;;;;;;1.95;0.90;;;21.60;69.80;;;;;;5033687;28;20048;-69
2022/08/30 09:30:19;;;;;;;9.48;1.10;;;21.40;69.60;;;;;;5033207;28;20041;-68
2022/08/30 09:32:58;;;;;;;1.40;0.70;;;21.20;69.40;;;;;;5032238;28;20399;-68
2022/08/30 09:35:49;;;;;;;1.45;0.85;;;21.30;69.90;;;;;;5033423;28;20562;-69
2022/08/30 09:38:29;;;;;;;2.70;1.00;;;21.10;70.00;;;;;;5033384;28;20124;-68
2022/08/30 09:40:57;;;;;;;1.63;0.93;;;20.70;70.20;;;;;;5031783;28;20038;-68
2022/08/30 09:43:26;;;;;;;2.72;0.82;;;20.60;71.30;;;;;;5033372;28;20069;-68
2022/08/30 09:45:58;;;;;;;2.28;1.05;;;20.70;71.70;;;;;;5033415;28;20080;-69
2022/08/30 09:48:39;;;;;;;1.33;0.77;;;20.60;71.30;;;;;;5015484;28;20045;-69
2022/08/30 09:51:13;;;;;;;1.88;1.05;;;20.50;71.00;;;;;;5031851;28;20175;-68
2022/08/30 09:54:08;;;;;;;4.30;0.82;;;20.60;72.00;;;;;;5033212;28;20468;-68
2022/08/30 09:57:02;;;;;;;5.15;0.75;;;20.60;72.20;;;;;;5031398;28;20050;-68
2022/08/30 10:00:05;;;;;;;1.70;0.80;;;20.50;72.20;;;;;;5032410;28;20476;-68
2022/08/30 10:02:44;;;;;;;1.88;0.75;;;20.40;71.80;;;;;;4978818;28;20066;-67
2022/08/30 10:05:47;;;;;;;2.00;0.90;;;20.40;71.30;;;;;;5031890;28;20049;-68
2022/08/30 10:08:42;;;;;;;2.75;1.08;;;20.40;69.70;;;;;;5032882;28;20051;-67
2022/08/30 10:11:54;;;;;;;4.05;1.17;;;20.30;70.30;;;;;;5030645;28;20045;-68
2022/08/30 10:14:45;;;;;;;3.92;0.70;;;20.50;68.90;;;;;;5003651;28;20057;-68
2022/08/30 10:17:20;;;;;;;1.35;0.82;;;20.80;70.10;;;;;;5027668;28;20565;-68
2022/08/30 10:20:14;;;;;;;1.90;0.82;;;21.00;69.00;;;;;;5031887;28;20037;-67
2022/08/30 10:22:53;;;;;;;1.80;0.68;;;20.90;67.60;;;;;;5030123;28;20462;-68
2022/08/30 10:25:25;;;;;;;1.58;0.80;;;20.80;68.20;;;;;;5031427;28;20034;-68
2022/08/30 10:28:14;;;;;;;5.10;0.98;;;20.60;68.10;;;;;;5031195;28;20046;-68
2022/08/30 10:30:51;;;;;;;2.28;1.00;;;20.60;68.90;;;;;;5030251;28;20041;-68
2022/08/30 10:33:38;;;;;;;4.60;1.10;;;20.60;68.70;;;;;;5031867;28;20121;-68
2022/08/30 10:36:08;;;;;;;2.38;0.95;;;20.80;68.40;;;;;;5032323;28;20038;-68
2022/08/30 10:38:40;;;;;;;1.85;0.88;;;20.80;67.60;;;;;;5031789;28;20399;-68
2022/08/30 10:41:31;;;;;;;2.22;1.10;;;20.70;67.50;;;;;;5031053;28;20120;-68
2022/08/30 10:44:03;;;;;;;2.83;0.85;;;20.90;67.80;;;;;;5012018;28;20049;-67
2022/08/30 10:46:49;;;;;;;5.03;1.00;;;21.20;68.70;;;;;;5012583;28;20034;-68
2022/08/30 10:49:20;;;;;;;2.33;1.05;;;21.30;67.20;;;;;;5010993;28;20056;-69
2022/08/30 10:51:57;;;;;;;3.83;0.77;;;21.30;66.90;;;;;;5011110;28;20115;-69
2022/08/30 10:54:41;;;;;;;2.92;0.80;;;21.20;66.20;;;;;;5028215;28;20040;-68
2022/08/30 10:57:07;;;;;;;1.67;0.90;;;21.10;65.60;;;;;;5028377;28;20095;-67
2022/08/30 10:59:37;;;;;;;2.05;0.70;;;21.00;64.90;;;;;;5031262;28;20042;-68
2022/08/30 11:02:37;;;;;;;1.52;0.85;;;21.10;65.30;;;;;;5031736;28;20083;-68
2022/08/30 11:05:40;;;;;;;3.17;0.93;;;21.20;64.80;;;;;;5031633;28;20049;-68
2022/08/30 11:08:28;;;;;;;1.30;0.77;;;21.10;65.20;;;;;;5025275;28;20156;-69
2022/08/30 11:11:17;;;;;;;1.20;0.90;;;21.20;65.10;;;;;;5031692;28;20045;-69
2022/08/30 11:13:44;;;;;;;2.92;1.23;;;21.20;65.50;;;;;;5031709;28;20407;-69
2022/08/30 11:16:15;;;;;;;1.90;0.73;;;21.30;65.20;;;;;;5031743;28;20041;-70
2022/08/30 11:18:45;;;;;;;0.93;0.70;;;21.30;64.70;;;;;;5031592;28;20172;-69
2022/08/30 11:21:30;;;;;;;2.58;0.98;;;21.20;64.80;;;;;;5031447;28;20048;-69
2022/08/30 11:24:15;;;;;;;1.73;0.77;;;21.10;64.30;;;;;;5030042;28;20464;-68
2022/08/30 11:26:53;;;;;;;1.10;0.60;;;20.90;64.50;;;;;;5031636;28;20041;-68
2022/08/30 11:29:25;;;;;;;1.80;0.90;;;21.10;64.90;;;;;;5030509;28;20121;-68
2022/08/30 11:31:51;;;;;;;2.83;0.90;;;21.10;65.70;;;;;;5037909;28;20050;-68
2022/08/30 11:34:43;;;;;;;1.40;0.57;;;21.20;67.10;;;;;;5031427;28;20087;-68
2022/08/30 11:37:10;;;;;;;2.10;0.82;;;21.30;65.40;;;;;;5025793;28;20057;-69
2022/08/30 11:39:48;;;;;;;1.95;0.90;;;21.40;65.80;;;;;;5029194;28;20083;-68
2022/08/30 11:42:28;;;;;;;1.33;0.80;;;21.40;65.80;;;;;;5030726;28;20057;-68
2022/08/30 11:45:23;;;;;;;2.95;0.90;;;21.40;67.00;;;;;;5029662;28;20029;-69
2022/08/30 11:48:04;;;;;;;1.30;0.68;;;21.50;65.30;;;;;;5031203;28;20396;-68
2022/08/30 11:50:33;;;;;;;2.05;1.00;;;21.60;65.10;;;;;;5031118;28;20048;-69
2022/08/30 11:53:05;;;;;;;3.50;1.15;;;21.50;65.10;;;;;;5029995;28;20518;-68
2022/08/30 11:55:42;;;;;;;2.75;0.70;;;21.50;65.00;;;;;;5030563;28;20416;-69
2022/08/30 11:58:26;;;;;;;1.98;1.02;;;21.50;65.60;;;;;;5035272;28;20042;-69
2022/08/30 12:01:32;;;;;;;1.05;0.65;;;21.50;65.40;;;;;;5033590;28;20044;-68
2022/08/30 12:04:00;;;;;;;2.50;0.77;;;21.40;65.80;;;;;;5032512;28;20065;-68
2022/08/30 12:06:41;;;;;;;2.33;1.10;;;21.30;66.10;;;;;;5032172;28;20037;-69
2022/08/30 12:09:25;;;;;;;2.75;0.70;;;21.40;65.80;;;;;;5031274;28;20513;-68
2022/08/30 12:11:59;;;;;;;1.85;0.88;;;21.50;66.10;;;;;;5034636;28;20037;-68
2022/08/30 12:14:50;;;;;;;1.55;0.80;;;21.50;65.20;;;;;;5034825;28;20103;-68
2022/08/30 12:20:23;;;;;;;1.85;0.73;;;21.50;65.60;;;;;;5034648;28;20092;-69
2022/08/30 12:22:50;;;;;;;3.08;0.90;;;21.50;64.60;;;;;;5034820;28;20037;-69
2022/08/30 12:25:22;;;;;;;2.40;0.60;;;21.60;65.70;;;;;;5034713;28;20487;-69
2022/08/30 12:27:48;;;;;;;1.50;0.65;;;21.70;65.50;;;;;;5034969;28;20048;-68
2022/08/30 12:30:22;;;;;;;2.72;0.85;;;21.70;65.60;;;;;;5034515;28;20033;-69
2022/08/30 12:32:49;;;;;;;0.70;0.50;;;21.80;65.60;;;;;;5033209;28;20048;-69
2022/08/30 12:35:23;;;;;;;1.35;0.75;;;21.80;65.40;;;;;;5034651;28;20072;-69
2022/08/30 12:38:02;;;;;;;2.00;0.73;;;21.90;65.80;;;;;;5034387;28;20045;-69
2022/08/30 12:40:30;;;;;;;3.08;0.70;;;21.80;65.60;;;;;;5034382;28;20037;-69
2022/08/30 12:43:03;;;;;;;1.50;0.73;;;21.70;65.70;;;;;;5034541;28;20045;-69
2022/08/30 12:45:43;;;;;;;3.13;0.80;;;21.70;65.30;;;;;;5034540;28;20037;-69
2022/08/30 12:48:13;;;;;;;2.22;0.80;;;21.60;65.50;;;;;;5034351;28;20125;-69
2022/08/30 12:50:50;;;;;;;2.42;0.82;;;21.70;64.80;;;;;;5033920;28;20041;-69
2022/08/30 12:53:22;;;;;;;1.45;0.60;;;21.60;65.10;;;;;;5034336;28;20080;-69
2022/08/30 12:55:50;;;;;;;2.97;0.93;;;21.70;65.40;;;;;;5034247;28;20553;-69
2022/08/30 12:58:15;;;;;;;2.33;0.57;;;21.80;65.60;;;;;;5034151;28;20038;-68
2022/08/30 13:00:46;;;;;;;3.20;0.80;;;21.90;65.60;;;;;;5033735;28;20041;-69
2022/08/30 13:03:35;;;;;;;2.60;0.90;;;22.10;64.90;;;;;;5034202;28;20034;-69
2022/08/30 13:06:02;;;;;;;1.40;0.90;;;22.00;65.30;;;;;;5034152;28;20395;-69
2022/08/30 13:08:44;;;;;;;3.47;0.93;;;21.90;65.80;;;;;;5033721;28;20124;-68
2022/08/30 13:11:26;;;;;;;1.13;0.60;;;21.80;65.00;;;;;;5033576;28;20120;-69
2022/08/30 13:14:17;;;;;;;2.05;0.52;;;21.70;64.80;;;;;;5032923;28;20045;-69
2022/08/30 13:16:42;;;;;;;2.30;0.70;;;21.70;65.20;;;;;;5033670;28;20120;-69